createdAt,value
2022-08-26T00:02:07.330Z,72.89
2022-08-26T00:04:34.935Z,72.79
2022-08-26T00:07:02.563Z,73.32
2022-08-26T00:09:30.614Z,73.04
2022-08-26T00:11:58.156Z,73.10
2022-08-26T00:14:30.813Z,72.91
2022-08-26T00:16:58.998Z,72.96
2022-08-26T00:19:27.397Z,72.99
2022-08-26T00:21:55.178Z,73.19
2022-08-26T00:24:24.046Z,72.83
2022-08-26T00:26:51.853Z,72.84
2022-08-26T00:29:19.744Z,72.74
2022-08-26T00:31:49.430Z,72.92
2022-08-26T00:34:19.404Z,72.57
2022-08-26T00:36:51.740Z,72.85
2022-08-26T00:39:20.262Z,73.01
2022-08-26T00:41:48.834Z,73.27
2022-08-26T00:44:17.277Z,73.42
2022-08-26T00:46:49.248Z,73.27
2022-08-26T00:49:27.702Z,72.48
2022-08-26T00:52:01.100Z,72.38
2022-08-26T00:54:33.063Z,71.99
2022-08-26T00:57:19.325Z,71.77
2022-08-26T00:59:55.243Z,71.75
2022-08-26T01:02:23.388Z,71.82
2022-08-26T01:04:58.047Z,71.61
2022-08-26T01:07:27.446Z,72.17
2022-08-26T01:09:56.517Z,72.26
2022-08-26T01:12:25.126Z,71.94
2022-08-26T01:14:52.973Z,72.63
2022-08-26T01:17:20.569Z,72.86
2022-08-26T01:19:54.320Z,72.68
2022-08-26T01:22:32.811Z,72.68
2022-08-26T01:25:03.423Z,72.71
2022-08-26T01:27:32.979Z,72.56
2022-08-26T01:30:02.233Z,72.45
2022-08-26T01:32:32.790Z,72.59
2022-08-26T01:35:01.162Z,72.63
2022-08-26T01:37:34.739Z,72.59
2022-08-26T01:40:03.329Z,73.04
2022-08-26T01:42:31.383Z,73.29
2022-08-26T01:45:10.234Z,73.29
2022-08-26T01:47:39.012Z,73.42
2022-08-26T01:50:13.290Z,73.83
2022-08-26T01:52:51.682Z,73.99
2022-08-26T01:55:33.137Z,73.76
2022-08-26T01:58:06.508Z,73.60
2022-08-26T02:00:36.397Z,73.89
2022-08-26T02:03:18.476Z,74.28
2022-08-26T02:05:53.650Z,74.20
2022-08-26T02:08:32.764Z,74.41
2022-08-26T02:11:00.398Z,74.49
2022-08-26T02:13:31.375Z,74.60
2022-08-26T02:16:03.897Z,74.49
2022-08-26T02:18:37.576Z,74.52
2022-08-26T02:21:07.940Z,74.50
2022-08-26T02:23:38.169Z,74.80
2022-08-26T02:26:12.060Z,74.59
2022-08-26T02:28:55.386Z,75.00
2022-08-26T02:31:23.949Z,75.15
2022-08-26T02:33:51.647Z,75.15
2022-08-26T02:36:25.111Z,74.80
2022-08-26T02:38:56.502Z,75.30
2022-08-26T02:41:24.363Z,75.81
2022-08-26T02:43:52.474Z,75.63
2022-08-26T02:46:21.430Z,75.92
2022-08-26T02:48:55.839Z,75.78
2022-08-26T02:51:23.637Z,75.80
2022-08-26T02:53:51.511Z,75.96
2022-08-26T02:56:19.179Z,76.01
2022-08-26T02:58:47.157Z,76.05
2022-08-26T03:01:31.584Z,76.28
2022-08-26T03:04:01.379Z,76.20
2022-08-26T03:06:29.251Z,76.62
2022-08-26T03:08:57.103Z,76.44
2022-08-26T03:11:29.639Z,76.40
2022-08-26T03:14:00.730Z,75.98
2022-08-26T03:16:37.669Z,75.40
2022-08-26T03:19:07.334Z,75.75
2022-08-26T03:21:37.494Z,75.26
2022-08-26T03:24:06.035Z,75.20
2022-08-26T03:26:33.586Z,75.44
2022-08-26T03:29:19.974Z,75.55
2022-08-26T03:31:47.628Z,75.23
2022-08-26T03:34:17.282Z,75.18
2022-08-26T03:36:45.881Z,74.96
2022-08-26T03:39:13.879Z,74.80
2022-08-26T03:41:42.102Z,74.63
2022-08-26T03:44:09.537Z,74.36
2022-08-26T03:46:38.540Z,74.22
2022-08-26T03:49:06.857Z,74.52
2022-08-26T03:51:38.818Z,74.39
2022-08-26T03:54:08.537Z,74.11
2022-08-26T03:56:36.750Z,74.45
2022-08-26T03:59:07.629Z,74.62
2022-08-26T04:01:36.152Z,74.50
2022-08-26T04:04:04.307Z,75.01
2022-08-26T04:06:40.094Z,74.70
2022-08-26T04:09:11.328Z,74.81
2022-08-26T04:11:41.968Z,74.68
2022-08-26T04:14:17.611Z,74.75
2022-08-26T04:16:48.450Z,74.93
2022-08-26T04:19:17.850Z,74.67
2022-08-26T04:21:47.870Z,75.20
2022-08-26T04:24:17.541Z,75.51
2022-08-26T04:26:45.445Z,75.59
2022-08-26T04:29:18.991Z,75.74
2022-08-26T04:31:48.247Z,75.82
2022-08-26T04:34:16.928Z,76.00
2022-08-26T04:36:45.066Z,75.85
2022-08-26T04:39:16.787Z,76.16
2022-08-26T04:41:48.648Z,76.13
2022-08-26T04:44:17.270Z,75.69
2022-08-26T04:46:45.345Z,76.33
2022-08-26T04:49:13.762Z,76.10
2022-08-26T04:51:41.290Z,75.98
2022-08-26T04:54:11.584Z,75.95
2022-08-26T04:56:41.870Z,76.21
2022-08-26T04:59:17.029Z,76.49
2022-08-26T05:01:48.660Z,76.47
2022-08-26T05:04:19.649Z,76.39
2022-08-26T05:06:49.336Z,76.43
2022-08-26T05:09:18.639Z,76.10
2022-08-26T05:11:48.523Z,76.41
2022-08-26T05:14:23.329Z,76.59
2022-08-26T05:16:51.600Z,76.47
2022-08-26T05:19:19.808Z,76.53
2022-08-26T05:21:49.407Z,76.31
2022-08-26T05:24:18.207Z,75.94
2022-08-26T05:26:47.344Z,76.34
2022-08-26T05:29:16.698Z,76.33
2022-08-26T05:31:44.383Z,76.11
2022-08-26T05:34:11.880Z,75.82
2022-08-26T05:36:40.231Z,75.81
2022-08-26T05:39:10.515Z,75.40
